Time;durP1;ratioP1;P1;durP2;ratioP2;P2;SDS_P1;SDS_P2;PMS_P1;PMS_P2;Temp;Humidity;BMP_temperature;BMP_pressure;BME280_temperature;BME280_humidity;BME280_pressure;Samples;Min_cycle;Max_cycle;Signal;HPM_P1;HPM_P2
2021/09/11 00:00:18;;;;;;;;;;;;;;;22.60;47.16;101134.88;5016304;28;1702;-44
2021/09/11 00:05:29;;;;;;;;;;;;;;;22.62;47.28;101138.28;5014372;28;2300;-44
2021/09/11 00:07:58;;;;;;;;;;;;;;;22.62;47.92;101141.84;5016724;28;1620;-44
2021/09/11 00:10:32;;;;;;;;;;;;;;;22.61;47.51;101142.84;5016390;28;1933;-44
2021/09/11 00:13:03;;;;;;;;;;;;;;;22.57;47.37;101133.34;5016237;28;1957;-44
2021/09/11 00:15:32;;;;;;;;;;;;;;;22.58;47.51;101131.50;5015793;28;1367;-44
2021/09/11 00:18:05;;;;;;;;;;;;;;;22.58;47.27;101134.19;5015909;28;1690;-44
2021/09/11 00:20:35;;;;;;;;;;;;;;;22.59;47.39;101133.22;5016003;28;1891;-44
2021/09/11 00:23:02;;;;;;;;;;;;;;;22.58;47.19;101140.44;5015868;28;1734;-44
2021/09/11 00:25:34;;;;;;;;;;;;;;;22.59;47.56;101135.91;5016535;28;1775;-44
2021/09/11 00:28:01;;;;;;;;;;;;;;;22.54;47.73;101133.66;5014415;28;1898;-44
2021/09/11 00:30:30;;;;;;;;;;;;;;;22.54;47.25;101141.75;5015972;28;1373;-44
2021/09/11 00:33:00;;;;;;;;;;;;;;;22.54;47.36;101130.09;5015166;28;1906;-44
2021/09/11 00:35:30;;;;;;;;;;;;;;;22.55;47.67;101132.66;5016302;28;2011;-44
2021/09/11 00:37:58;;;;;;;;;;;;;;;22.54;47.50;101117.50;5012916;28;1760;-44
2021/09/11 00:40:28;;;;;;;;;;;;;;;22.52;47.23;101116.81;5016505;28;999;-44
2021/09/11 00:42:57;;;;;;;;;;;;;;;22.52;47.34;101115.94;5015445;28;1965;-44
2021/09/11 00:45:38;;;;;;;;;;;;;;;22.55;47.23;101113.78;5015878;28;1889;-44
2021/09/11 00:48:06;;;;;;;;;;;;;;;22.54;47.52;101122.00;5015383;28;1809;-44
2021/09/11 00:50:34;;;;;;;;;;;;;;;22.54;47.68;101111.22;5015612;28;1680;-44
2021/09/11 00:53:02;;;;;;;;;;;;;;;22.51;47.05;101122.34;5015091;28;1906;-44
2021/09/11 00:55:30;;;;;;;;;;;;;;;22.54;47.29;101117.50;5005459;28;1627;-44
2021/09/11 00:58:08;;;;;;;;;;;;;;;22.49;46.92;101121.63;5004293;28;1633;-44
2021/09/11 01:00:38;;;;;;;;;;;;;;;22.51;47.48;101114.25;5015095;28;1711;-44
2021/09/11 01:03:06;;;;;;;;;;;;;;;22.49;47.67;101110.84;5014300;28;1647;-44
2021/09/11 01:05:35;;;;;;;;;;;;;;;22.50;47.40;101113.41;5008757;28;1402;-44
2021/09/11 01:08:08;;;;;;;;;;;;;;;22.46;47.61;101120.06;5005991;28;1821;-43
2021/09/11 01:10:38;;;;;;;;;;;;;;;22.51;47.25;101123.16;5015653;28;1112;-44
2021/09/11 01:13:08;;;;;;;;;;;;;;;22.48;47.75;101120.75;5014947;28;1980;-44
2021/09/11 01:15:37;;;;;;;;;;;;;;;22.45;47.56;101123.78;5015149;28;1838;-44
2021/09/11 01:18:04;;;;;;;;;;;;;;;22.46;46.92;101122.75;5011536;28;1631;-44
2021/09/11 01:20:34;;;;;;;;;;;;;;;22.48;47.20;101128.00;5014992;28;2099;-44
2021/09/11 01:23:01;;;;;;;;;;;;;;;22.47;47.08;101131.72;5014638;28;1611;-44
2021/09/11 01:25:33;;;;;;;;;;;;;;;22.49;46.89;101135.94;5009183;28;1460;-44
2021/09/11 01:28:01;;;;;;;;;;;;;;;22.47;47.57;101131.72;5011124;28;1836;-44
2021/09/11 01:30:31;;;;;;;;;;;;;;;22.48;47.01;101150.41;5010168;28;2043;-44
2021/09/11 01:32:58;;;;;;;;;;;;;;;22.42;47.16;101138.41;5007740;28;1910;-44
2021/09/11 01:35:27;;;;;;;;;;;;;;;22.42;47.13;101129.44;5014859;28;1934;-44
2021/09/11 01:37:55;;;;;;;;;;;;;;;22.47;47.21;101148.72;5014753;28;2109;-44
2021/09/11 01:40:23;;;;;;;;;;;;;;;22.41;47.33;101134.00;5015302;28;1086;-44
2021/09/11 01:43:03;;;;;;;;;;;;;;;22.46;47.01;101151.56;5014679;28;1945;-44
2021/09/11 01:45:43;;;;;;;;;;;;;;;22.41;47.30;101149.31;5008601;28;1497;-45
2021/09/11 01:48:13;;;;;;;;;;;;;;;22.42;47.16;101153.69;5013547;28;1580;-44
2021/09/11 01:50:43;;;;;;;;;;;;;;;22.41;47.11;101142.09;5014516;28;1454;-44
2021/09/11 01:53:12;;;;;;;;;;;;;;;22.41;46.73;101125.91;5014122;28;1995;-44
2021/09/11 01:55:41;;;;;;;;;;;;;;;22.43;46.69;101136.56;5014737;28;1345;-44
2021/09/11 01:58:24;;;;;;;;;;;;;;;22.41;47.63;101154.72;5012625;28;1786;-44
2021/09/11 02:01:04;;;;;;;;;;;;;;;22.42;47.17;101142.91;5122255;22;3546;-44
2021/09/11 02:03:34;;;;;;;;;;;;;;;22.39;46.85;101149.47;5048779;28;1665;-44
2021/09/11 02:06:01;;;;;;;;;;;;;;;22.39;46.92;101138.69;5050578;28;1072;-44
2021/09/11 02:08:29;;;;;;;;;;;;;;;22.40;47.45;101139.53;5052548;28;1442;-44
2021/09/11 02:10:57;;;;;;;;;;;;;;;22.38;47.53;101149.59;5052486;28;1993;-44
2021/09/11 02:13:25;;;;;;;;;;;;;;;22.38;46.81;101138.84;5052510;28;1981;-44
2021/09/11 02:15:59;;;;;;;;;;;;;;;;;;5052639;28;1790;-44
2021/09/11 02:18:44;;;;;;;;;;;;;;;22.40;46.91;101142.22;5052277;28;1671;-44
2021/09/11 02:21:11;;;;;;;;;;;;;;;22.40;47.67;101139.53;5052208;28;1472;-44
2021/09/11 02:23:39;;;;;;;;;;;;;;;22.34;46.77;101143.69;5052220;28;1865;-44
2021/09/11 02:26:06;;;;;;;;;;;;;;;22.35;47.21;101149.91;5052826;28;1095;-44
2021/09/11 02:28:40;;;;;;;;;;;;;;;22.38;47.13;101155.00;5052538;28;1360;-46
2021/09/11 02:31:07;;;;;;;;;;;;;;;22.37;47.01;101164.09;5052295;28;1775;-44
2021/09/11 02:33:37;;;;;;;;;;;;;;;22.34;47.13;101153.59;5051551;28;2009;-44
2021/09/11 02:36:05;;;;;;;;;;;;;;;22.27;46.99;101139.03;5052285;28;1454;-46
2021/09/11 02:38:33;;;;;;;;;;;;;;;22.32;46.78;101152.91;5052029;28;1425;-44
2021/09/11 02:41:04;;;;;;;;;;;;;;;22.35;46.61;101155.31;5053699;28;1826;-44
2021/09/11 02:43:31;;;;;;;;;;;;;;;22.34;47.00;101153.59;5051855;28;1655;-44
2021/09/11 02:46:00;;;;;;;;;;;;;;;22.34;47.43;101142.81;5049972;28;1942;-44
2021/09/11 02:48:29;;;;;;;;;;;;;;;22.32;47.49;101151.06;5051982;28;1840;-44
2021/09/11 02:51:08;;;;;;;;;;;;;;;22.30;46.93;101146.81;5052122;28;2320;-44
2021/09/11 02:53:42;;;;;;;;;;;;;;;22.32;46.84;101153.78;5051255;28;1918;-44
2021/09/11 02:56:09;;;;;;;;;;;;;;;22.31;47.03;101153.91;5051998;28;1595;-45
2021/09/11 02:58:36;;;;;;;;;;;;;;;22.36;47.51;101170.47;5051839;28;1451;-44
2021/09/11 03:01:03;;;;;;;;;;;;;;;22.29;47.04;101156.75;5050306;28;1570;-44
2021/09/11 03:03:32;;;;;;;;;;;;;;;22.29;47.46;101154.06;5052016;28;2145;-44
2021/09/11 03:06:01;;;;;;;;;;;;;;;22.30;46.85;101155.72;5050285;28;1608;-44
2021/09/11 03:08:29;;;;;;;;;;;;;;;22.30;47.11;101155.72;5064541;28;1299;-44
2021/09/11 03:10:57;;;;;;;;;;;;;;;22.33;46.89;101162.69;5072326;28;1169;-45
2021/09/11 03:13:23;;;;;;;;;;;;;;;22.29;47.08;101150.53;5051144;28;1973;-44
2021/09/11 03:15:51;;;;;;;;;;;;;;;22.29;47.46;101159.44;5051715;28;1862;-44
2021/09/11 03:18:18;;;;;;;;;;;;;;;22.27;47.54;101153.34;5050837;28;1970;-44
2021/09/11 03:20:47;;;;;;;;;;;;;;;22.29;47.07;101145.97;5050857;28;1903;-44
2021/09/11 03:23:19;;;;;;;;;;;;;;;22.31;46.85;101151.22;5051856;28;1807;-44
2021/09/11 03:25:47;;;;;;;;;;;;;;;22.32;47.21;101150.19;5056414;28;1476;-44
2021/09/11 03:28:15;;;;;;;;;;;;;;;22.33;47.01;101154.59;5055451;28;1403;-44
2021/09/11 03:30:46;;;;;;;;;;;;;;;22.28;46.72;101143.41;5050577;28;2126;-44
2021/09/11 03:33:16;;;;;;;;;;;;;;;22.29;47.03;101147.81;5055384;28;1983;-44
2021/09/11 03:35:45;;;;;;;;;;;;;;;22.33;46.75;101162.69;5055651;28;1836;-44
2021/09/11 03:38:13;;;;;;;;;;;;;;;22.33;47.28;101163.53;5055626;28;1568;-44
2021/09/11 03:40:45;;;;;;;;;;;;;;;22.29;47.39;101161.28;5055871;28;1525;-44
2021/09/11 03:43:13;;;;;;;;;;;;;;;22.30;47.12;101160.28;5055183;28;1577;-44
2021/09/11 03:45:39;;;;;;;;;;;;;;;22.29;47.15;101153.22;5055346;28;1560;-44
2021/09/11 03:48:07;;;;;;;;;;;;;;;22.29;47.12;101164.00;5055188;28;1898;-44
2021/09/11 03:50:34;;;;;;;;;;;;;;;22.31;46.72;101162.00;5054815;28;1692;-44
2021/09/11 03:53:04;;;;;;;;;;;;;;;22.28;46.74;101159.59;5054891;28;1804;-44
2021/09/11 03:55:40;;;;;;;;;;;;;;;22.28;47.06;101164.97;5055913;28;1971;-44
2021/09/11 03:58:22;;;;;;;;;;;;;;;22.31;47.18;101160.13;5051348;28;1655;-44
2021/09/11 04:00:52;;;;;;;;;;;;;;;22.27;47.08;101164.13;5052022;28;1684;-44
2021/09/11 04:03:26;;;;;;;;;;;;;;;22.30;46.77;101168.38;5056274;28;1524;-45
2021/09/11 04:05:54;;;;;;;;;;;;;;;22.27;46.60;101164.13;5055029;28;1497;-44
2021/09/11 04:08:21;;;;;;;;;;;;;;;22.30;47.30;101155.72;5054887;28;2103;-44
2021/09/11 04:10:48;;;;;;;;;;;;;;;22.29;47.50;101172.06;5054612;28;1266;-45
2021/09/11 04:13:15;;;;;;;;;;;;;;;22.29;47.13;101155.91;5001782;28;2790;-44
2021/09/11 04:15:42;;;;;;;;;;;;;;;22.30;47.03;101168.38;5053601;28;1902;-45
2021/09/11 04:18:21;;;;;;;;;;;;;;;22.21;47.74;101170.91;5049111;28;11000;-44
2021/09/11 04:20:51;;;;;;;;;;;;;;;22.27;47.94;101171.38;5052772;28;1865;-44
2021/09/11 04:23:19;;;;;;;;;;;;;;;22.24;47.22;101159.88;5054467;28;1760;-44
2021/09/11 04:25:46;;;;;;;;;;;;;;;22.29;47.48;101162.13;5054627;28;1681;-44
2021/09/11 04:28:13;;;;;;;;;;;;;;;22.30;47.14;101173.75;5054071;28;1888;-45
2021/09/11 04:30:41;;;;;;;;;;;;;;;22.28;47.25;101155.03;5054074;28;1816;-44
2021/09/11 04:33:08;;;;;;;;;;;;;;;22.30;47.90;101173.75;5067716;28;1654;-44
2021/09/11 04:35:48;;;;;;;;;;;;;;;22.29;47.24;101162.13;5062430;28;1902;-44
2021/09/11 04:38:15;;;;;;;;;;;;;;;22.33;47.43;101168.91;5054474;28;1883;-44
2021/09/11 04:40:42;;;;;;;;;;;;;;;22.30;47.87;101179.13;5055055;28;1591;-44
2021/09/11 04:43:08;;;;;;;;;;;;;;;22.31;47.83;101176.31;5052913;28;1534;-44
2021/09/11 04:45:37;;;;;;;;;;;;;;;22.31;47.19;101187.09;5054049;28;1793;-44
2021/09/11 04:48:05;;;;;;;;;;;;;;;22.34;47.65;101177.84;5054102;28;1818;-45
2021/09/11 04:50:33;;;;;;;;;;;;;;;22.38;47.89;101176.56;5054341;28;1561;-44
2021/09/11 04:53:05;;;;;;;;;;;;;;;22.44;48.66;101186.75;5053759;28;1822;-45
2021/09/11 04:55:32;;;;;;;;;;;;;;;22.48;48.87;101166.56;5054481;28;2068;-45
2021/09/11 04:58:00;;;;;;;;;;;;;;;22.48;49.26;101160.34;5054056;28;1677;-45
2021/09/11 05:00:28;;;;;;;;;;;;;;;22.52;49.13;101162.63;5054071;28;1870;-44
2021/09/11 05:02:59;;;;;;;;;;;;;;;22.56;48.47;101180.19;5053715;28;1771;-44
2021/09/11 05:05:27;;;;;;;;;;;;;;;22.61;49.27;101167.09;5053828;28;1931;-45
2021/09/11 05:07:55;;;;;;;;;;;;;;;22.60;49.70;101165.41;5054016;28;1405;-44
2021/09/11 05:10:28;;;;;;;;;;;;;;;22.57;47.30;101164.84;5054486;28;1078;-45
2021/09/11 05:13:02;;;;;;;;;;;;;;;22.48;46.47;101190.84;5053881;28;1969;-45
2021/09/11 05:15:30;;;;;;;;;;;;;;;22.47;46.22;101175.69;5053517;28;1906;-44
2021/09/11 05:17:57;;;;;;;;;;;;;;;22.44;45.70;101187.59;5053569;28;1750;-44
2021/09/11 05:20:24;;;;;;;;;;;;;;;22.43;45.45;101175.13;5052999;28;1496;-47
2021/09/11 05:22:52;;;;;;;;;;;;;;;22.40;45.85;101180.81;5053604;28;1657;-45
2021/09/11 05:25:19;;;;;;;;;;;;;;;22.49;47.66;101175.53;5047441;28;1713;-44
2021/09/11 05:27:52;;;;;;;;;;;;;;;22.60;48.22;101189.66;5052481;28;2078;-45
2021/09/11 05:30:19;;;;;;;;;;;;;;;22.58;48.16;101178.19;5049923;28;1946;-45
2021/09/11 05:32:47;;;;;;;;;;;;;;;22.62;48.99;101184.09;5051997;28;1459;-44
2021/09/11 05:35:13;;;;;;;;;;;;;;;22.70;48.99;101169.88;5051311;28;1910;-44
2021/09/11 05:37:41;;;;;;;;;;;;;;;22.61;48.54;101159.00;5052764;28;1699;-44
2021/09/11 05:40:09;;;;;;;;;;;;;;;22.72;48.61;101167.88;5053657;28;1097;-44
2021/09/11 05:42:38;;;;;;;;;;;;;;;22.73;49.35;101161.50;5052974;28;2068;-44
2021/09/11 05:45:11;;;;;;;;;;;;;;;22.76;47.59;101163.88;5050457;28;1961;-45
2021/09/11 05:47:52;;;;;;;;;;;;;;;22.79;48.14;101163.59;5047580;28;1608;-44
2021/09/11 05:50:19;;;;;;;;;;;;;;;22.83;48.87;101165.00;5053124;28;1853;-45
2021/09/11 05:52:53;;;;;;;;;;;;;;;22.93;48.41;101163.06;5051909;28;2971;-43
2021/09/11 05:55:21;;;;;;;;;;;;;;;22.91;47.88;101153.44;5048944;28;1906;-42
2021/09/11 05:57:47;;;;;;;;;;;;;;;22.92;47.89;101157.81;5046591;28;1778;-43
2021/09/11 06:00:20;;;;;;;;;;;;;;;22.94;48.31;101162.09;5045617;28;1678;-41
2021/09/11 06:02:51;;;;;;;;;;;;;;;22.97;47.23;101161.78;5050011;28;1943;-44
2021/09/11 06:05:18;;;;;;;;;;;;;;;22.92;46.92;101150.59;5049606;28;1608;-42
2021/09/11 06:07:45;;;;;;;;;;;;;;;22.96;46.81;101157.41;5048281;28;1820;-42
2021/09/11 06:10:15;;;;;;;;;;;;;;;22.98;47.25;101151.84;5052110;28;1496;-43
2021/09/11 06:12:42;;;;;;;;;;;;;;;22.98;48.04;101152.69;5052386;28;1732;-43
2021/09/11 06:15:12;;;;;;;;;;;;;;;23.05;46.79;101149.41;5052017;28;1914;-42
2021/09/11 06:17:40;;;;;;;;;;;;;;;23.09;47.62;101150.81;5044037;28;1585;-42
2021/09/11 06:22:59;;;;;;;;;;;;;;;23.09;46.83;101153.50;5048901;28;1589;-43
2021/09/11 06:25:26;;;;;;;;;;;;;;;23.16;49.35;101160.84;5055245;28;1986;-43
2021/09/11 06:27:57;;;;;;;;;;;;;;;23.20;47.65;101158.69;5051595;28;1832;-43
2021/09/11 06:30:26;;;;;;;;;;;;;;;23.22;48.90;101160.22;5038923;28;1833;-43
2021/09/11 06:33:07;;;;;;;;;;;;;;;23.24;50.90;101149.28;5055398;28;1570;-43
2021/09/11 06:35:47;;;;;;;;;;;;;;;23.27;51.53;101148.94;5051064;28;1910;-43
2021/09/11 06:38:15;;;;;;;;;;;;;;;23.36;52.35;101172.31;5052087;28;1813;-43
2021/09/11 06:40:42;;;;;;;;;;;;;;;23.34;52.15;101154.59;5052832;28;1227;-43
2021/09/11 06:43:09;;;;;;;;;;;;;;;23.35;51.88;101157.13;5036204;28;1708;-43
2021/09/11 06:45:37;;;;;;;;;;;;;;;23.39;51.67;101150.41;5051844;28;1527;-43
2021/09/11 06:48:06;;;;;;;;;;;;;;;23.43;52.66;101157.19;5052048;28;1784;-43
2021/09/11 06:50:34;;;;;;;;;;;;;;;23.45;51.41;101148.94;5051371;28;1568;-43
2021/09/11 06:53:15;;;;;;;;;;;;;;;23.54;52.07;101152.56;5050854;28;1665;-43
2021/09/11 06:55:45;;;;;;;;;;;;;;;23.57;52.39;101144.16;5039730;28;1987;-43
2021/09/11 06:58:13;;;;;;;;;;;;;;;23.61;52.02;101146.38;5056475;28;1897;-43
2021/09/11 07:00:40;;;;;;;;;;;;;;;23.67;52.53;101128.69;5051501;28;1787;-45
2021/09/11 07:06:09;;;;;;;;;;;;;;;23.65;52.74;101144.22;5051256;28;2328;-43
2021/09/11 07:08:35;;;;;;;;;;;;;;;23.63;52.61;101146.22;5051159;28;1463;-43
2021/09/11 07:11:18;;;;;;;;;;;;;;;23.70;52.68;101147.28;5052143;28;1351;-43
2021/09/11 07:13:45;;;;;;;;;;;;;;;23.68;52.86;101146.59;5052034;28;1067;-43
2021/09/11 07:16:15;;;;;;;;;;;;;;;23.72;52.90;101147.97;5050636;28;1902;-44
2021/09/11 07:18:51;;;;;;;;;;;;;;;23.70;52.77;101139.19;5051658;28;1767;-42
2021/09/11 07:21:20;;;;;;;;;;;;;;;23.64;54.74;101137.13;5052394;28;1795;-44
2021/09/11 07:23:48;;;;;;;;;;;;;;;23.63;55.83;101143.50;5049069;28;2081;-43
2021/09/11 07:26:19;;;;;;;;;;;;;;;23.66;55.07;101151.31;5040918;28;1573;-43
2021/09/11 07:28:51;;;;;;;;;;;;;;;23.70;54.88;101147.28;5051166;28;1734;-45
2021/09/11 07:31:18;;;;;;;;;;;;;;;23.78;54.33;101160.88;5049565;28;1608;-43
2021/09/11 07:33:45;;;;;;;;;;;;;;;23.64;53.67;101145.22;5049328;28;1555;-43
2021/09/11 07:36:11;;;;;;;;;;;;;;;23.60;54.26;101147.38;5049698;28;1906;-43
2021/09/11 07:38:38;;;;;;;;;;;;;;;23.57;54.35;101144.16;5046865;28;1767;-43
2021/09/11 07:41:05;;;;;;;;;;;;;;;23.56;54.25;101148.69;5048601;28;1566;-44
2021/09/11 07:43:32;;;;;;;;;;;;;;;23.58;53.80;101149.41;5048076;28;1162;-43
2021/09/11 07:45:59;;;;;;;;;;;;;;;23.57;54.21;101141.44;5042128;28;1956;-43
2021/09/11 07:48:25;;;;;;;;;;;;;;;23.58;53.57;101138.59;5049726;28;1601;-43
2021/09/11 07:50:53;;;;;;;;;;;;;;;23.62;53.97;101156.19;5048237;28;1486;-43
2021/09/11 07:53:19;;;;;;;;;;;;;;;23.59;53.77;101147.53;5044181;28;1583;-43
2021/09/11 07:55:46;;;;;;;;;;;;;;;23.56;53.58;101151.41;5039266;28;1921;-43
2021/09/11 07:58:12;;;;;;;;;;;;;;;23.58;53.58;101148.56;5048261;28;2094;-44
2021/09/11 08:00:40;;;;;;;;;;;;;;;23.58;53.72;101145.84;5050806;28;1836;-43
2021/09/11 08:03:06;;;;;;;;;;;;;;;23.59;53.53;101144.84;5047782;28;1665;-43
2021/09/11 08:05:33;;;;;;;;;;;;;;;23.59;53.33;101144.84;5047446;28;1678;-43
2021/09/11 08:07:59;;;;;;;;;;;;;;;23.62;53.70;101139.97;5051593;28;1092;-43
2021/09/11 08:10:26;;;;;;;;;;;;;;;23.58;53.36;101137.75;5052972;28;1850;-44
2021/09/11 08:12:53;;;;;;;;;;;;;;;23.57;53.46;101138.75;5053784;28;1534;-44
2021/09/11 08:15:19;;;;;;;;;;;;;;;23.62;53.27;101145.38;5051973;28;1905;-43
2021/09/11 08:17:47;;;;;;;;;;;;;;;23.61;53.09;101145.53;5054410;28;1610;-43
2021/09/11 08:20:14;;;;;;;;;;;;;;;23.61;53.17;101145.53;5053287;28;1298;-43
2021/09/11 08:22:41;;;;;;;;;;;;;;;23.57;53.27;101130.66;5053470;28;1570;-43
2021/09/11 08:25:08;;;;;;;;;;;;;;;23.58;52.84;101132.34;5051528;28;1186;-45
2021/09/11 08:27:35;;;;;;;;;;;;;;;23.58;52.87;101126.97;5046743;28;1944;-43
2021/09/11 08:30:01;;;;;;;;;;;;;;;23.60;52.75;101122.25;5054026;28;1624;-43
2021/09/11 08:32:28;;;;;;;;;;;;;;;23.57;52.74;101119.84;5053624;28;1316;-44
2021/09/11 08:34:56;;;;;;;;;;;;;;;23.60;52.83;101114.16;5047960;28;1901;-43
2021/09/11 08:37:22;;;;;;;;;;;;;;;23.58;52.81;101111.59;5054154;28;1678;-43
2021/09/11 08:39:49;;;;;;;;;;;;;;;23.60;52.96;101108.75;5054032;28;1119;-43
2021/09/11 08:42:15;;;;;;;;;;;;;;;23.61;52.85;101116.66;5051521;28;1866;-43
2021/09/11 08:44:42;;;;;;;;;;;;;;;23.59;53.13;101098.94;5050849;28;1494;-43
2021/09/11 08:47:08;;;;;;;;;;;;;;;23.60;52.78;101100.66;5044130;28;1550;-43
2021/09/11 08:49:35;;;;;;;;;;;;;;;23.62;53.11;101102.19;5051504;28;1526;-43
2021/09/11 08:52:04;;;;;;;;;;;;;;;23.58;52.72;101100.81;5043482;28;1627;-43
2021/09/11 08:54:31;;;;;;;;;;;;;;;23.58;52.67;101090.00;5045440;28;1107;-43
2021/09/11 08:56:57;;;;;;;;;;;;;;;23.58;52.67;101091.88;5042654;28;1902;-43
2021/09/11 08:59:25;;;;;;;;;;;;;;;23.58;52.58;101091.88;5053034;28;1551;-43
2021/09/11 09:02:02;;;;;;;;;;;;;;;23.59;52.29;101085.44;5052656;28;1567;-43
2021/09/11 09:04:42;;;;;;;;;;;;;;;23.58;52.23;101083.75;5043773;28;1588;-43
2021/09/11 09:07:10;;;;;;;;;;;;;;;23.57;52.31;101072.09;5052404;28;1280;-44
2021/09/11 09:09:40;;;;;;;;;;;;;;;23.57;52.28;101072.09;5053863;28;1085;-43
2021/09/11 09:12:12;;;;;;;;;;;;;;;23.59;52.30;101063.84;5051135;28;1635;-43
2021/09/11 09:14:38;;;;;;;;;;;;;;;23.60;52.49;101062.84;5047723;28;1549;-44
2021/09/11 09:17:10;;;;;;;;;;;;;;;23.60;51.78;101066.41;5052650;28;1898;-43
2021/09/11 09:19:37;;;;;;;;;;;;;;;23.64;52.62;101066.94;5053041;28;1465;-43
2021/09/11 09:22:04;;;;;;;;;;;;;;;23.62;51.97;101048.19;5053345;28;1193;-43
2021/09/11 09:24:34;;;;;;;;;;;;;;;23.61;52.13;101059.13;5052512;28;1958;-43
2021/09/11 09:27:02;;;;;;;;;;;;;;;23.60;52.11;101046.66;5042316;28;1647;-43
2021/09/11 09:29:28;;;;;;;;;;;;;;;23.61;51.82;101051.03;5052867;28;1675;-43
2021/09/11 09:31:58;;;;;;;;;;;;;;;23.59;51.91;101042.25;5052143;28;1575;-43
2021/09/11 09:34:29;;;;;;;;;;;;;;;23.61;52.23;101034.84;5043249;28;1551;-43
2021/09/11 09:36:56;;;;;;;;;;;;;;;23.61;51.96;101045.63;5052785;28;1981;-44
2021/09/11 09:39:22;;;;;;;;;;;;;;;23.61;52.41;101030.28;5052946;28;1069;-43
2021/09/11 09:41:51;;;;;;;;;;;;;;;23.58;52.08;101041.41;5050406;28;1777;-43
2021/09/11 09:44:19;;;;;;;;;;;;;;;23.61;52.01;101034.84;5049595;28;1404;-43
2021/09/11 09:46:46;;;;;;;;;;;;;;;23.60;51.80;101030.47;5043732;28;1506;-43
2021/09/11 09:49:16;;;;;;;;;;;;;;;23.60;51.96;101025.91;5050100;28;1930;-43
2021/09/11 09:51:44;;;;;;;;;;;;;;;23.62;51.14;101023.03;5049961;28;2074;-43
2021/09/11 09:54:14;;;;;;;;;;;;;;;23.61;49.75;101026.72;5053513;28;1390;-43
2021/09/11 09:56:41;;;;;;;;;;;;;;;23.74;49.56;101024.47;5053188;28;1973;-43
2021/09/11 09:59:09;;;;;;;;;;;;;;;23.75;46.21;101015.34;5053001;28;1522;-43
2021/09/11 10:01:37;;;;;;;;;;;;;;;23.82;46.99;101027.22;5051930;28;1698;-43
2021/09/11 10:04:16;;;;;;;;;;;;;;;23.76;47.49;101008.94;5053273;28;1449;-44
2021/09/11 10:06:44;;;;;;;;;;;;;;;23.75;47.47;101015.34;5046469;28;1565;-43
2021/09/11 10:09:14;;;;;;;;;;;;;;;23.77;45.79;101012.47;5054027;28;1260;-44
2021/09/11 10:11:49;;;;;;;;;;;;;;;23.77;46.89;101012.47;5053083;28;1610;-43
2021/09/11 10:14:20;;;;;;;;;;;;;;;23.73;47.18;101005.72;5052983;28;1430;-44
2021/09/11 10:16:57;;;;;;;;;;;;;;;23.77;47.31;101005.25;5049493;28;1906;-45
2021/09/11 10:19:24;;;;;;;;;;;;;;;23.84;46.14;100994.66;5050731;28;1678;-44
2021/09/11 10:21:59;;;;;;;;;;;;;;;23.82;46.24;101005.63;5051691;28;1999;-43
2021/09/11 10:24:27;;;;;;;;;;;;;;;23.79;44.84;100995.13;5053397;28;1927;-44
2021/09/11 10:26:54;;;;;;;;;;;;;;;23.72;46.02;100994.06;5051857;28;1658;-43
2021/09/11 10:29:50;;;;;;;;;;;;;;;23.77;44.65;100990.88;5052655;28;1554;-44
2021/09/11 10:32:21;;;;;;;;;;;;;;;23.77;44.55;100991.75;5014280;28;3023;-43
2021/09/11 10:34:50;;;;;;;;;;;;;;;23.79;44.67;101000.53;5051447;28;1483;-43
2021/09/11 10:37:38;;;;;;;;;;;;;;;23.80;44.99;101001.41;5049861;28;2061;-43
2021/09/11 10:40:30;;;;;;;;;;;;;;;23.79;44.85;101000.53;5051493;28;1314;-44
2021/09/11 10:43:10;;;;;;;;;;;;;;;23.80;44.48;100974.41;5037889;28;1840;-44
2021/09/11 10:45:44;;;;;;;;;;;;;;;23.82;44.70;100984.03;5052905;28;1546;-44
2021/09/11 10:48:29;;;;;;;;;;;;;;;23.81;43.27;100979.66;5051235;28;1489;-44
2021/09/11 10:50:57;;;;;;;;;;;;;;;23.75;43.95;100980.22;5051398;28;1513;-44
2021/09/11 10:53:24;;;;;;;;;;;;;;;23.76;44.08;100976.53;5045273;28;1662;-44
2021/09/11 10:55:51;;;;;;;;;;;;;;;23.76;43.87;100973.00;5045096;28;1906;-44
2021/09/11 10:58:38;;;;;;;;;;;;;;;23.77;43.05;100970.16;5051191;28;1927;-45
2021/09/11 11:01:05;;;;;;;;;;;;;;;23.76;42.97;100962.19;5052312;28;1802;-44
2021/09/11 11:03:34;;;;;;;;;;;;;;;23.74;43.03;100965.06;5052111;28;1523;-44
2021/09/11 11:06:03;;;;;;;;;;;;;;;23.75;43.12;100950.53;5051345;28;1862;-44
2021/09/11 11:08:30;;;;;;;;;;;;;;;23.74;43.01;100956.94;5052143;28;1429;-44
2021/09/11 11:10:57;;;;;;;;;;;;;;;23.74;43.26;100965.06;5052222;28;1676;-44
2021/09/11 11:13:24;;;;;;;;;;;;;;;23.76;43.06;100952.22;5052169;28;1902;-44
2021/09/11 11:15:54;;;;;;;;;;;;;;;23.78;41.48;100954.81;5051879;28;1977;-44
2021/09/11 11:18:21;;;;;;;;;;;;;;;23.91;40.80;100951.63;5051577;28;1752;-44
2021/09/11 11:20:47;;;;;;;;;;;;;;;23.90;41.40;100952.66;5052208;28;1642;-44
2021/09/11 11:23:15;;;;;;;;;;;;;;;23.90;42.21;100961.59;5051100;28;1586;-44
2021/09/11 11:25:42;;;;;;;;;;;;;;;23.90;42.75;100947.25;5051405;28;1364;-44
2021/09/11 11:28:09;;;;;;;;;;;;;;;23.82;42.51;100948.91;5052587;28;2010;-44
2021/09/11 11:30:36;;;;;;;;;;;;;;;23.80;42.56;100953.63;5052091;28;1555;-44
2021/09/11 11:33:05;;;;;;;;;;;;;;;23.80;42.76;100948.22;5051235;28;1648;-44
2021/09/11 11:35:32;;;;;;;;;;;;;;;23.82;42.48;100945.38;5049171;28;1500;-44
2021/09/11 11:37:59;;;;;;;;;;;;;;;23.80;42.19;100931.19;5053935;28;1973;-44
2021/09/11 11:40:28;;;;;;;;;;;;;;;23.82;41.72;100923.78;5053581;28;1293;-44
2021/09/11 11:42:55;;;;;;;;;;;;;;;23.81;42.99;100922.94;5052187;28;1473;-44
2021/09/11 11:45:32;;;;;;;;;;;;;;;23.82;42.48;100924.59;5050078;28;1543;-44
2021/09/11 11:48:04;;;;;;;;;;;;;;;23.86;42.08;100918.88;5051618;28;1582;-44
2021/09/11 11:50:33;;;;;;;;;;;;;;;23.85;41.49;100918.03;5056116;28;1403;-45
2021/09/11 11:53:00;;;;;;;;;;;;;;;23.93;40.17;100917.22;5053631;28;1575;-44
2021/09/11 11:55:30;;;;;;;;;;;;;;;23.94;40.76;100906.25;5049393;28;1597;-43
2021/09/11 11:58:11;;;;;;;;;;;;;;;23.93;41.29;100918.03;5055105;28;1984;-44
2021/09/11 12:00:46;;;;;;;;;;;;;;;23.84;41.61;100907.41;5049014;28;2456;-44
2021/09/11 12:03:32;;;;;;;;;;;;;;;23.88;41.56;100912.31;5031580;28;1588;-45
2021/09/11 12:05:58;;;;;;;;;;;;;;;23.94;40.54;100910.81;5025324;28;1535;-44
2021/09/11 12:08:25;;;;;;;;;;;;;;;23.97;40.96;100895.13;5033775;28;1672;-44
2021/09/11 12:10:54;;;;;;;;;;;;;;;24.05;39.76;100906.94;5033082;28;1605;-44
2021/09/11 12:13:21;;;;;;;;;;;;;;;24.05;40.43;100894.28;5035816;28;1787;-44
2021/09/11 12:15:48;;;;;;;;;;;;;;;24.03;41.12;100899.00;5035702;28;1571;-44
2021/09/11 12:18:18;;;;;;;;;;;;;;;24.05;41.52;100888.88;5034716;28;1902;-44
2021/09/11 12:20:45;;;;;;;;;;;;;;;24.08;39.19;100890.41;5031562;28;1785;-44
2021/09/11 12:23:13;;;;;;;;;;;;;;;24.20;39.42;100898.03;5034883;28;1691;-44
2021/09/11 12:25:46;;;;;;;;;;;;;;;24.16;38.29;100872.34;5035633;28;1948;-44
2021/09/11 12:28:31;;;;;;;;;;;;;;;24.10;40.78;100900.03;5035639;28;1667;-44
2021/09/11 12:30:59;;;;;;;;;;;;;;;24.01;41.25;100890.22;5034829;28;1640;-44
2021/09/11 12:33:26;;;;;;;;;;;;;;;23.94;42.38;100890.03;5035609;28;1662;-44
2021/09/11 12:35:53;;;;;;;;;;;;;;;23.96;42.67;100887.19;5034965;28;1572;-48
2021/09/11 12:38:19;;;;;;;;;;;;;;;23.91;43.42;100881.41;5035371;28;1909;-46
2021/09/11 12:40:46;;;;;;;;;;;;;;;23.89;43.90;100880.75;5036485;28;1099;-44
2021/09/11 12:43:12;;;;;;;;;;;;;;;23.87;44.66;100880.91;5035303;28;1920;-47
2021/09/11 12:45:39;;;;;;;;;;;;;;;23.93;44.53;100887.50;5035167;28;2075;-46
2021/09/11 12:48:07;;;;;;;;;;;;;;;23.88;45.04;100870.97;5035569;28;1573;-45
2021/09/11 12:50:33;;;;;;;;;;;;;;;23.89;45.34;100864.53;5035275;28;1845;-44
2021/09/11 12:53:00;;;;;;;;;;;;;;;23.96;45.23;100876.38;5034889;28;1616;-45
2021/09/11 12:55:26;;;;;;;;;;;;;;;23.93;45.81;100860.50;5034259;28;1607;-44
2021/09/11 12:57:53;;;;;;;;;;;;;;;23.94;46.80;100868.44;5031822;28;1910;-45
2021/09/11 13:00:20;;;;;;;;;;;;;;;23.97;47.17;100856.44;5034384;28;1787;-44
2021/09/11 13:02:47;;;;;;;;;;;;;;;23.97;46.51;100851.03;5051291;28;1854;-45
2021/09/11 13:05:15;;;;;;;;;;;;;;;23.93;47.40;100857.78;5054299;28;1586;-44
2021/09/11 13:07:41;;;;;;;;;;;;;;;23.98;46.39;100850.03;5054311;28;1442;-45